sensor_id;sensor_type;location;lat;lon;timestamp;temperature;humidity
19522;DHT22;9905;52.126;5.596;2023-06-14T00:01:13;19.40;93.70
19522;DHT22;9905;52.126;5.596;2023-06-14T00:03:40;19.30;94.10
19522;DHT22;9905;52.126;5.596;2023-06-14T00:06:08;19.30;94.60
19522;DHT22;9905;52.126;5.596;2023-06-14T00:08:35;19.20;94.60
19522;DHT22;9905;52.126;5.596;2023-06-14T00:11:02;19.20;94.90
19522;DHT22;9905;52.126;5.596;2023-06-14T00:13:29;19.20;95.10
19522;DHT22;9905;52.126;5.596;2023-06-14T00:15:55;19.10;95.40
19522;DHT22;9905;52.126;5.596;2023-06-14T00:18:22;19.10;95.90
19522;DHT22;9905;52.126;5.596;2023-06-14T00:20:52;19.10;96.50
19522;DHT22;9905;52.126;5.596;2023-06-14T00:23:20;19.00;97.00
19522;DHT22;9905;52.126;5.596;2023-06-14T00:25:47;19.00;97.50
19522;DHT22;9905;52.126;5.596;2023-06-14T00:28:14;19.00;97.90
19522;DHT22;9905;52.126;5.596;2023-06-14T00:30:40;18.90;97.90
19522;DHT22;9905;52.126;5.596;2023-06-14T00:33:09;18.90;98.60
19522;DHT22;9905;52.126;5.596;2023-06-14T00:35:36;18.90;99.00
19522;DHT22;9905;52.126;5.596;2023-06-14T00:38:02;18.90;99.60
19522;DHT22;9905;52.126;5.596;2023-06-14T00:40:31;18.80;99.90
19522;DHT22;9905;52.126;5.596;2023-06-14T00:42:57;18.80;99.90
19522;DHT22;9905;52.126;5.596;2023-06-14T00:45:24;18.70;99.90
19522;DHT22;9905;52.126;5.596;2023-06-14T00:47:51;18.80;99.90
19522;DHT22;9905;52.126;5.596;2023-06-14T00:50:21;18.70;99.90
19522;DHT22;9905;52.126;5.596;2023-06-14T00:52:48;18.60;99.90
19522;DHT22;9905;52.126;5.596;2023-06-14T00:55:15;18.60;99.90
19522;DHT22;9905;52.126;5.596;2023-06-14T00:57:44;18.50;99.90
19522;DHT22;9905;52.126;5.596;2023-06-14T01:00:12;18.50;99.90
19522;DHT22;9905;52.126;5.596;2023-06-14T01:02:40;18.50;99.90
19522;DHT22;9905;52.126;5.596;2023-06-14T01:05:07;18.50;99.90
19522;DHT22;9905;52.126;5.596;2023-06-14T01:07:43;18.50;99.90
19522;DHT22;9905;52.126;5.596;2023-06-14T01:10:26;18.40;99.90
19522;DHT22;9905;52.126;5.596;2023-06-14T01:13:01;18.30;99.90
19522;DHT22;9905;52.126;5.596;2023-06-14T01:15:30;18.30;99.90
19522;DHT22;9905;52.126;5.596;2023-06-14T01:17:57;18.30;99.90
19522;DHT22;9905;52.126;5.596;2023-06-14T01:20:29;18.30;99.90
19522;DHT22;9905;52.126;5.596;2023-06-14T01:22:58;18.20;99.90
19522;DHT22;9905;52.126;5.596;2023-06-14T01:25:25;18.20;99.90
19522;DHT22;9905;52.126;5.596;2023-06-14T01:27:55;18.20;99.90
19522;DHT22;9905;52.126;5.596;2023-06-14T01:30:23;18.20;99.90
19522;DHT22;9905;52.126;5.596;2023-06-14T01:32:51;18.10;99.90
19522;DHT22;9905;52.126;5.596;2023-06-14T01:35:20;18.10;99.90
19522;DHT22;9905;52.126;5.596;2023-06-14T01:37:48;18.10;99.90
19522;DHT22;9905;52.126;5.596;2023-06-14T01:40:17;18.00;99.90
19522;DHT22;9905;52.126;5.596;2023-06-14T01:42:46;18.00;99.90
19522;DHT22;9905;52.126;5.596;2023-06-14T01:45:14;17.90;99.90
19522;DHT22;9905;52.126;5.596;2023-06-14T01:47:41;17.90;99.90
19522;DHT22;9905;52.126;5.596;2023-06-14T01:50:09;17.90;99.90
19522;DHT22;9905;52.126;5.596;2023-06-14T01:52:36;17.90;99.90
19522;DHT22;9905;52.126;5.596;2023-06-14T01:55:04;17.80;99.90
19522;DHT22;9905;52.126;5.596;2023-06-14T01:57:32;17.80;99.90
19522;DHT22;9905;52.126;5.596;2023-06-14T01:59:59;17.70;99.90
19522;DHT22;9905;52.126;5.596;2023-06-14T02:02:25;17.80;99.90
19522;DHT22;9905;52.126;5.596;2023-06-14T02:04:52;17.70;99.90
19522;DHT22;9905;52.126;5.596;2023-06-14T02:07:22;17.60;99.90
19522;DHT22;9905;52.126;5.596;2023-06-14T02:09:49;17.60;99.90
19522;DHT22;9905;52.126;5.596;2023-06-14T02:12:16;17.60;99.90
19522;DHT22;9905;52.126;5.596;2023-06-14T02:14:44;17.50;99.90
19522;DHT22;9905;52.126;5.596;2023-06-14T02:17:11;17.50;99.90
19522;DHT22;9905;52.126;5.596;2023-06-14T02:19:38;17.50;99.90
19522;DHT22;9905;52.126;5.596;2023-06-14T02:22:05;17.40;99.90
19522;DHT22;9905;52.126;5.596;2023-06-14T02:24:32;17.40;99.90
19522;DHT22;9905;52.126;5.596;2023-06-14T02:26:59;17.40;99.90
19522;DHT22;9905;52.126;5.596;2023-06-14T02:29:25;17.30;99.90
19522;DHT22;9905;52.126;5.596;2023-06-14T02:31:53;17.20;99.90
19522;DHT22;9905;52.126;5.596;2023-06-14T02:34:20;17.20;99.90
19522;DHT22;9905;52.126;5.596;2023-06-14T02:36:47;17.20;99.90
19522;DHT22;9905;52.126;5.596;2023-06-14T02:39:15;17.10;99.90
19522;DHT22;9905;52.126;5.596;2023-06-14T02:41:43;17.10;99.90
19522;DHT22;9905;52.126;5.596;2023-06-14T02:44:10;17.00;99.90
19522;DHT22;9905;52.126;5.596;2023-06-14T02:46:37;17.00;99.90
19522;DHT22;9905;52.126;5.596;2023-06-14T02:49:05;17.00;99.90
19522;DHT22;9905;52.126;5.596;2023-06-14T02:51:32;17.00;99.90
19522;DHT22;9905;52.126;5.596;2023-06-14T02:53:58;16.90;99.90
19522;DHT22;9905;52.126;5.596;2023-06-14T02:56:25;16.90;99.90
19522;DHT22;9905;52.126;5.596;2023-06-14T02:58:53;16.90;99.90
19522;DHT22;9905;52.126;5.596;2023-06-14T03:01:20;16.80;99.90
19522;DHT22;9905;52.126;5.596;2023-06-14T03:03:47;16.80;99.90
19522;DHT22;9905;52.126;5.596;2023-06-14T03:06:15;16.80;99.90
19522;DHT22;9905;52.126;5.596;2023-06-14T03:08:42;16.70;99.90
19522;DHT22;9905;52.126;5.596;2023-06-14T03:11:09;16.70;99.90
19522;DHT22;9905;52.126;5.596;2023-06-14T03:13:36;16.70;99.90
19522;DHT22;9905;52.126;5.596;2023-06-14T03:16:03;16.70;99.90
19522;DHT22;9905;52.126;5.596;2023-06-14T03:18:30;16.60;99.90
19522;DHT22;9905;52.126;5.596;2023-06-14T03:21:01;16.60;99.90
19522;DHT22;9905;52.126;5.596;2023-06-14T03:23:29;16.60;99.90
19522;DHT22;9905;52.126;5.596;2023-06-14T03:25:57;16.50;99.90
19522;DHT22;9905;52.126;5.596;2023-06-14T03:28:24;16.50;99.90
19522;DHT22;9905;52.126;5.596;2023-06-14T03:30:51;16.50;99.90
19522;DHT22;9905;52.126;5.596;2023-06-14T03:33:18;16.40;99.90
19522;DHT22;9905;52.126;5.596;2023-06-14T03:35:46;16.40;99.90
19522;DHT22;9905;52.126;5.596;2023-06-14T03:38:13;16.40;99.90
19522;DHT22;9905;52.126;5.596;2023-06-14T03:40:41;16.40;99.90
19522;DHT22;9905;52.126;5.596;2023-06-14T03:43:08;16.40;99.90
19522;DHT22;9905;52.126;5.596;2023-06-14T03:45:35;16.40;99.90
19522;DHT22;9905;52.126;5.596;2023-06-14T03:48:02;16.30;99.90
19522;DHT22;9905;52.126;5.596;2023-06-14T03:50:29;16.30;99.90
19522;DHT22;9905;52.126;5.596;2023-06-14T03:52:57;16.30;99.90
19522;DHT22;9905;52.126;5.596;2023-06-14T03:55:24;16.30;99.90
19522;DHT22;9905;52.126;5.596;2023-06-14T03:57:54;16.30;99.90
19522;DHT22;9905;52.126;5.596;2023-06-14T04:00:21;16.20;99.90
19522;DHT22;9905;52.126;5.596;2023-06-14T04:02:48;16.20;99.90
19522;DHT22;9905;52.126;5.596;2023-06-14T04:05:15;16.20;99.90
19522;DHT22;9905;52.126;5.596;2023-06-14T04:07:44;16.20;99.90
19522;DHT22;9905;52.126;5.596;2023-06-14T04:10:12;16.20;99.90
19522;DHT22;9905;52.126;5.596;2023-06-14T04:12:39;16.20;99.90
19522;DHT22;9905;52.126;5.596;2023-06-14T04:15:09;16.20;99.90
19522;DHT22;9905;52.126;5.596;2023-06-14T04:17:37;16.20;99.90
19522;DHT22;9905;52.126;5.596;2023-06-14T04:20:05;16.20;99.90
19522;DHT22;9905;52.126;5.596;2023-06-14T04:22:35;16.20;99.90
19522;DHT22;9905;52.126;5.596;2023-06-14T04:25:02;16.20;99.90
19522;DHT22;9905;52.126;5.596;2023-06-14T04:27:31;16.30;99.90
19522;DHT22;9905;52.126;5.596;2023-06-14T04:30:02;16.30;99.90
19522;DHT22;9905;52.126;5.596;2023-06-14T04:32:30;16.30;99.90
19522;DHT22;9905;52.126;5.596;2023-06-14T04:34:59;16.30;99.90
19522;DHT22;9905;52.126;5.596;2023-06-14T04:37:27;16.30;99.90
19522;DHT22;9905;52.126;5.596;2023-06-14T04:39:54;16.30;99.90
19522;DHT22;9905;52.126;5.596;2023-06-14T04:42:22;16.40;99.90
19522;DHT22;9905;52.126;5.596;2023-06-14T04:44:51;16.40;99.90
19522;DHT22;9905;52.126;5.596;2023-06-14T04:47:20;16.40;99.90
19522;DHT22;9905;52.126;5.596;2023-06-14T04:49:48;16.50;99.90
19522;DHT22;9905;52.126;5.596;2023-06-14T04:52:16;16.50;99.90
19522;DHT22;9905;52.126;5.596;2023-06-14T04:54:43;16.50;99.90
19522;DHT22;9905;52.126;5.596;2023-06-14T04:57:10;16.60;99.90
19522;DHT22;9905;52.126;5.596;2023-06-14T04:59:39;16.60;99.90
19522;DHT22;9905;52.126;5.596;2023-06-14T05:02:06;16.70;99.90
19522;DHT22;9905;52.126;5.596;2023-06-14T05:04:34;16.80;99.90
19522;DHT22;9905;52.126;5.596;2023-06-14T05:07:06;16.80;99.90
19522;DHT22;9905;52.126;5.596;2023-06-14T05:09:33;16.90;99.90
19522;DHT22;9905;52.126;5.596;2023-06-14T05:12:00;16.90;99.90
19522;DHT22;9905;52.126;5.596;2023-06-14T05:14:26;17.00;99.90
19522;DHT22;9905;52.126;5.596;2023-06-14T05:16:53;17.00;99.90
19522;DHT22;9905;52.126;5.596;2023-06-14T05:19:20;17.10;99.90
19522;DHT22;9905;52.126;5.596;2023-06-14T05:21:47;17.20;99.90
19522;DHT22;9905;52.126;5.596;2023-06-14T05:24:15;17.30;99.90
19522;DHT22;9905;52.126;5.596;2023-06-14T05:26:43;17.30;99.90
19522;DHT22;9905;52.126;5.596;2023-06-14T05:29:10;17.40;99.90
19522;DHT22;9905;52.126;5.596;2023-06-14T05:31:37;17.50;99.90
19522;DHT22;9905;52.126;5.596;2023-06-14T05:34:04;17.60;99.90
19522;DHT22;9905;52.126;5.596;2023-06-14T05:36:30;17.60;99.90
19522;DHT22;9905;52.126;5.596;2023-06-14T05:38:57;17.60;99.90
19522;DHT22;9905;52.126;5.596;2023-06-14T05:41:26;17.70;99.90
19522;DHT22;9905;52.126;5.596;2023-06-14T05:43:54;17.70;99.90
19522;DHT22;9905;52.126;5.596;2023-06-14T05:46:22;17.80;99.90
19522;DHT22;9905;52.126;5.596;2023-06-14T05:48:51;17.90;99.90
19522;DHT22;9905;52.126;5.596;2023-06-14T05:51:17;17.90;99.90
19522;DHT22;9905;52.126;5.596;2023-06-14T05:53:45;18.00;99.90
19522;DHT22;9905;52.126;5.596;2023-06-14T05:56:12;18.10;99.90
19522;DHT22;9905;52.126;5.596;2023-06-14T05:58:40;18.20;99.90
19522;DHT22;9905;52.126;5.596;2023-06-14T06:01:07;18.30;99.90
19522;DHT22;9905;52.126;5.596;2023-06-14T06:03:34;18.40;99.90
19522;DHT22;9905;52.126;5.596;2023-06-14T06:06:01;18.50;99.90
19522;DHT22;9905;52.126;5.596;2023-06-14T06:08:28;18.50;99.90
19522;DHT22;9905;52.126;5.596;2023-06-14T06:10:55;18.60;99.90
19522;DHT22;9905;52.126;5.596;2023-06-14T06:13:22;18.80;99.90
19522;DHT22;9905;52.126;5.596;2023-06-14T06:15:50;18.80;99.90
19522;DHT22;9905;52.126;5.596;2023-06-14T06:18:17;18.90;99.90
19522;DHT22;9905;52.126;5.596;2023-06-14T06:20:44;19.00;99.90
19522;DHT22;9905;52.126;5.596;2023-06-14T06:23:12;19.10;99.90
19522;DHT22;9905;52.126;5.596;2023-06-14T06:25:40;19.20;99.90
19522;DHT22;9905;52.126;5.596;2023-06-14T06:28:06;19.30;99.90
19522;DHT22;9905;52.126;5.596;2023-06-14T06:30:33;19.40;99.90
19522;DHT22;9905;52.126;5.596;2023-06-14T06:33:02;19.50;99.90
19522;DHT22;9905;52.126;5.596;2023-06-14T06:35:29;19.60;99.90
19522;DHT22;9905;52.126;5.596;2023-06-14T06:37:58;19.60;99.90
19522;DHT22;9905;52.126;5.596;2023-06-14T06:40:25;19.70;99.90
19522;DHT22;9905;52.126;5.596;2023-06-14T06:42:57;19.80;99.90
19522;DHT22;9905;52.126;5.596;2023-06-14T06:45:24;19.90;99.90
19522;DHT22;9905;52.126;5.596;2023-06-14T06:47:51;20.10;99.90
19522;DHT22;9905;52.126;5.596;2023-06-14T06:50:19;20.20;99.90
19522;DHT22;9905;52.126;5.596;2023-06-14T06:52:51;20.30;99.90
19522;DHT22;9905;52.126;5.596;2023-06-14T06:55:21;20.40;99.90
19522;DHT22;9905;52.126;5.596;2023-06-14T06:57:47;20.40;99.90
19522;DHT22;9905;52.126;5.596;2023-06-14T07:00:18;20.50;99.90
19522;DHT22;9905;52.126;5.596;2023-06-14T07:02:45;20.60;99.90
19522;DHT22;9905;52.126;5.596;2023-06-14T07:05:12;20.80;99.90
19522;DHT22;9905;52.126;5.596;2023-06-14T07:07:40;20.80;99.90
19522;DHT22;9905;52.126;5.596;2023-06-14T07:10:07;20.90;99.90
19522;DHT22;9905;52.126;5.596;2023-06-14T07:12:34;21.00;99.90
19522;DHT22;9905;52.126;5.596;2023-06-14T07:15:05;21.10;99.90
19522;DHT22;9905;52.126;5.596;2023-06-14T07:17:33;21.20;99.90
19522;DHT22;9905;52.126;5.596;2023-06-14T07:20:00;21.40;99.90
19522;DHT22;9905;52.126;5.596;2023-06-14T07:22:37;21.50;99.90
19522;DHT22;9905;52.126;5.596;2023-06-14T07:25:06;21.50;99.90
19522;DHT22;9905;52.126;5.596;2023-06-14T07:27:33;21.60;99.90
19522;DHT22;9905;52.126;5.596;2023-06-14T07:30:00;21.80;99.90
19522;DHT22;9905;52.126;5.596;2023-06-14T07:32:27;21.90;99.90
19522;DHT22;9905;52.126;5.596;2023-06-14T07:34:53;22.00;99.90
19522;DHT22;9905;52.126;5.596;2023-06-14T07:37:20;22.20;99.90
19522;DHT22;9905;52.126;5.596;2023-06-14T07:39:47;22.30;99.90
19522;DHT22;9905;52.126;5.596;2023-06-14T07:42:15;22.30;99.90
19522;DHT22;9905;52.126;5.596;2023-06-14T07:44:42;22.40;99.50
19522;DHT22;9905;52.126;5.596;2023-06-14T07:47:09;22.40;99.90
19522;DHT22;9905;52.126;5.596;2023-06-14T07:49:35;22.60;99.50
19522;DHT22;9905;52.126;5.596;2023-06-14T07:52:03;22.70;99.60
19522;DHT22;9905;52.126;5.596;2023-06-14T07:54:30;22.80;99.30
19522;DHT22;9905;52.126;5.596;2023-06-14T07:56:58;23.00;99.10
19522;DHT22;9905;52.126;5.596;2023-06-14T07:59:27;23.10;97.60
19522;DHT22;9905;52.126;5.596;2023-06-14T08:01:54;23.20;96.20
19522;DHT22;9905;52.126;5.596;2023-06-14T08:04:20;23.30;97.10
19522;DHT22;9905;52.126;5.596;2023-06-14T08:06:47;23.40;96.50
19522;DHT22;9905;52.126;5.596;2023-06-14T08:09:14;23.60;96.10
19522;DHT22;9905;52.126;5.596;2023-06-14T08:11:42;23.60;95.10
19522;DHT22;9905;52.126;5.596;2023-06-14T08:14:08;23.70;94.70
19522;DHT22;9905;52.126;5.596;2023-06-14T08:16:36;23.80;94.00
19522;DHT22;9905;52.126;5.596;2023-06-14T08:19:04;23.80;93.50
19522;DHT22;9905;52.126;5.596;2023-06-14T08:21:30;24.00;94.10
19522;DHT22;9905;52.126;5.596;2023-06-14T08:23:59;24.10;93.10
19522;DHT22;9905;52.126;5.596;2023-06-14T08:26:25;24.20;93.10
19522;DHT22;9905;52.126;5.596;2023-06-14T08:28:54;24.30;92.90
19522;DHT22;9905;52.126;5.596;2023-06-14T08:31:21;24.40;92.80
19522;DHT22;9905;52.126;5.596;2023-06-14T08:33:49;24.50;91.90
19522;DHT22;9905;52.126;5.596;2023-06-14T08:36:16;24.60;91.70
19522;DHT22;9905;52.126;5.596;2023-06-14T08:38:43;24.70;91.30
19522;DHT22;9905;52.126;5.596;2023-06-14T08:41:11;24.90;90.60
19522;DHT22;9905;52.126;5.596;2023-06-14T08:43:39;25.00;90.30
19522;DHT22;9905;52.126;5.596;2023-06-14T08:46:06;25.10;89.50
19522;DHT22;9905;52.126;5.596;2023-06-14T08:48:34;25.20;88.80
19522;DHT22;9905;52.126;5.596;2023-06-14T08:51:03;25.30;86.50
19522;DHT22;9905;52.126;5.596;2023-06-14T08:53:31;25.40;88.40
19522;DHT22;9905;52.126;5.596;2023-06-14T08:55:59;25.50;87.70
19522;DHT22;9905;52.126;5.596;2023-06-14T08:58:27;25.60;86.50
19522;DHT22;9905;52.126;5.596;2023-06-14T09:00:55;25.50;87.00
19522;DHT22;9905;52.126;5.596;2023-06-14T09:03:22;25.60;86.60
19522;DHT22;9905;52.126;5.596;2023-06-14T09:05:54;25.60;87.30
19522;DHT22;9905;52.126;5.596;2023-06-14T09:08:22;25.70;86.00
19522;DHT22;9905;52.126;5.596;2023-06-14T09:10:50;25.90;87.20
19522;DHT22;9905;52.126;5.596;2023-06-14T09:13:17;26.00;86.10
19522;DHT22;9905;52.126;5.596;2023-06-14T09:15:44;26.10;85.70
19522;DHT22;9905;52.126;5.596;2023-06-14T09:18:11;26.20;85.30
19522;DHT22;9905;52.126;5.596;2023-06-14T09:20:38;26.30;84.40
19522;DHT22;9905;52.126;5.596;2023-06-14T09:23:04;26.40;84.20
19522;DHT22;9905;52.126;5.596;2023-06-14T09:25:41;26.50;80.50
19522;DHT22;9905;52.126;5.596;2023-06-14T09:28:09;26.60;79.30
19522;DHT22;9905;52.126;5.596;2023-06-14T09:30:37;26.70;78.90
19522;DHT22;9905;52.126;5.596;2023-06-14T09:33:04;26.70;80.00
19522;DHT22;9905;52.126;5.596;2023-06-14T09:35:31;26.70;79.10
19522;DHT22;9905;52.126;5.596;2023-06-14T09:37:58;26.70;79.90
19522;DHT22;9905;52.126;5.596;2023-06-14T09:40:25;26.80;79.00
19522;DHT22;9905;52.126;5.596;2023-06-14T09:42:53;26.80;79.30
19522;DHT22;9905;52.126;5.596;2023-06-14T09:45:23;27.00;80.10
19522;DHT22;9905;52.126;5.596;2023-06-14T09:47:51;27.10;79.50
19522;DHT22;9905;52.126;5.596;2023-06-14T09:50:18;27.20;80.20
19522;DHT22;9905;52.126;5.596;2023-06-14T09:52:48;27.40;80.70
19522;DHT22;9905;52.126;5.596;2023-06-14T09:55:19;27.50;79.30
19522;DHT22;9905;52.126;5.596;2023-06-14T09:57:47;27.60;78.90
19522;DHT22;9905;52.126;5.596;2023-06-14T10:00:18;27.70;78.80
19522;DHT22;9905;52.126;5.596;2023-06-14T10:02:49;27.90;77.80
19522;DHT22;9905;52.126;5.596;2023-06-14T10:05:20;28.00;77.60
19522;DHT22;9905;52.126;5.596;2023-06-14T10:07:52;27.80;73.40
19522;DHT22;9905;52.126;5.596;2023-06-14T10:10:19;27.70;71.70
19522;DHT22;9905;52.126;5.596;2023-06-14T10:12:46;27.70;72.60
19522;DHT22;9905;52.126;5.596;2023-06-14T10:15:19;27.80;73.00
19522;DHT22;9905;52.126;5.596;2023-06-14T10:17:50;28.00;73.00
19522;DHT22;9905;52.126;5.596;2023-06-14T10:20:27;28.00;71.60
19522;DHT22;9905;52.126;5.596;2023-06-14T10:23:00;28.00;72.30
19522;DHT22;9905;52.126;5.596;2023-06-14T10:25:29;28.20;73.30
19522;DHT22;9905;52.126;5.596;2023-06-14T10:28:05;28.30;73.10
19522;DHT22;9905;52.126;5.596;2023-06-14T10:31:02;28.40;72.30
19522;DHT22;9905;52.126;5.596;2023-06-14T10:33:29;28.50;72.70
19522;DHT22;9905;52.126;5.596;2023-06-14T10:36:07;28.60;72.40
19522;DHT22;9905;52.126;5.596;2023-06-14T10:38:36;28.70;73.00
19522;DHT22;9905;52.126;5.596;2023-06-14T10:41:04;28.80;72.60
19522;DHT22;9905;52.126;5.596;2023-06-14T10:43:31;28.90;73.80
19522;DHT22;9905;52.126;5.596;2023-06-14T10:46:18;29.00;72.80
19522;DHT22;9905;52.126;5.596;2023-06-14T10:48:48;29.00;71.20
19522;DHT22;9905;52.126;5.596;2023-06-14T10:51:17;29.10;71.30
19522;DHT22;9905;52.126;5.596;2023-06-14T10:53:46;29.00;69.00
19522;DHT22;9905;52.126;5.596;2023-06-14T10:56:27;28.90;70.10
19522;DHT22;9905;52.126;5.596;2023-06-14T10:58:55;28.60;70.50
19522;DHT22;9905;52.126;5.596;2023-06-14T11:01:38;28.70;70.10
19522;DHT22;9905;52.126;5.596;2023-06-14T11:04:08;28.50;70.10
19522;DHT22;9905;52.126;5.596;2023-06-14T11:06:45;28.30;70.20
19522;DHT22;9905;52.126;5.596;2023-06-14T11:12:26;28.70;70.60
19522;DHT22;9905;52.126;5.596;2023-06-14T11:14:54;28.90;70.90
19522;DHT22;9905;52.126;5.596;2023-06-14T11:17:22;29.00;70.80
19522;DHT22;9905;52.126;5.596;2023-06-14T11:19:49;29.20;71.70
19522;DHT22;9905;52.126;5.596;2023-06-14T11:22:16;29.40;71.60
19522;DHT22;9905;52.126;5.596;2023-06-14T11:24:43;29.40;71.30
19522;DHT22;9905;52.126;5.596;2023-06-14T11:27:10;29.60;69.70
19522;DHT22;9905;52.126;5.596;2023-06-14T11:29:38;29.50;69.40
19522;DHT22;9905;52.126;5.596;2023-06-14T11:32:07;29.50;69.50
19522;DHT22;9905;52.126;5.596;2023-06-14T11:34:39;29.70;70.00
19522;DHT22;9905;52.126;5.596;2023-06-14T11:37:05;29.70;70.10
19522;DHT22;9905;52.126;5.596;2023-06-14T11:39:32;29.80;68.10
19522;DHT22;9905;52.126;5.596;2023-06-14T11:41:59;29.80;68.10
19522;DHT22;9905;52.126;5.596;2023-06-14T11:44:28;29.90;66.30
19522;DHT22;9905;52.126;5.596;2023-06-14T11:46:56;29.80;67.10
19522;DHT22;9905;52.126;5.596;2023-06-14T11:49:23;29.90;67.20
19522;DHT22;9905;52.126;5.596;2023-06-14T11:51:53;30.00;66.80
19522;DHT22;9905;52.126;5.596;2023-06-14T11:54:20;29.90;66.40
19522;DHT22;9905;52.126;5.596;2023-06-14T11:56:46;30.00;68.00
19522;DHT22;9905;52.126;5.596;2023-06-14T11:59:13;30.10;68.40
19522;DHT22;9905;52.126;5.596;2023-06-14T12:01:42;30.10;66.70
19522;DHT22;9905;52.126;5.596;2023-06-14T12:04:10;29.90;65.60
19522;DHT22;9905;52.126;5.596;2023-06-14T12:06:37;29.80;65.70
19522;DHT22;9905;52.126;5.596;2023-06-14T12:09:07;29.50;65.10
19522;DHT22;9905;52.126;5.596;2023-06-14T12:11:38;29.40;65.70
19522;DHT22;9905;52.126;5.596;2023-06-14T12:14:05;29.50;66.50
19522;DHT22;9905;52.126;5.596;2023-06-14T12:16:33;29.50;65.50
19522;DHT22;9905;52.126;5.596;2023-06-14T12:19:07;29.50;65.70
19522;DHT22;9905;52.126;5.596;2023-06-14T12:21:36;29.60;65.20
19522;DHT22;9905;52.126;5.596;2023-06-14T12:24:06;29.60;64.60
19522;DHT22;9905;52.126;5.596;2023-06-14T12:26:33;29.80;64.60
19522;DHT22;9905;52.126;5.596;2023-06-14T12:29:05;30.00;65.00
19522;DHT22;9905;52.126;5.596;2023-06-14T12:31:32;30.30;63.50
19522;DHT22;9905;52.126;5.596;2023-06-14T12:33:59;30.30;63.90
19522;DHT22;9905;52.126;5.596;2023-06-14T12:36:26;30.40;63.60
19522;DHT22;9905;52.126;5.596;2023-06-14T12:38:53;30.50;62.50
19522;DHT22;9905;52.126;5.596;2023-06-14T12:41:21;30.60;64.30
19522;DHT22;9905;52.126;5.596;2023-06-14T12:43:48;30.40;64.50
19522;DHT22;9905;52.126;5.596;2023-06-14T12:46:15;30.40;63.60
19522;DHT22;9905;52.126;5.596;2023-06-14T12:48:41;30.50;63.30
19522;DHT22;9905;52.126;5.596;2023-06-14T12:51:08;30.70;64.00
19522;DHT22;9905;52.126;5.596;2023-06-14T12:53:35;30.70;64.30
19522;DHT22;9905;52.126;5.596;2023-06-14T12:56:02;30.70;65.20
19522;DHT22;9905;52.126;5.596;2023-06-14T12:58:30;30.90;64.60
19522;DHT22;9905;52.126;5.596;2023-06-14T13:00:56;30.90;64.20
19522;DHT22;9905;52.126;5.596;2023-06-14T13:03:23;31.00;64.10
19522;DHT22;9905;52.126;5.596;2023-06-14T13:05:50;30.90;64.30
19522;DHT22;9905;52.126;5.596;2023-06-14T13:08:17;30.90;64.70
19522;DHT22;9905;52.126;5.596;2023-06-14T13:10:43;31.00;64.70
19522;DHT22;9905;52.126;5.596;2023-06-14T13:13:10;30.90;65.20
19522;DHT22;9905;52.126;5.596;2023-06-14T13:15:39;30.60;63.90
19522;DHT22;9905;52.126;5.596;2023-06-14T13:18:06;30.40;62.80
19522;DHT22;9905;52.126;5.596;2023-06-14T13:20:32;30.50;62.90
19522;DHT22;9905;52.126;5.596;2023-06-14T13:22:59;30.50;62.10
19522;DHT22;9905;52.126;5.596;2023-06-14T13:25:27;30.40;62.60
19522;DHT22;9905;52.126;5.596;2023-06-14T13:27:54;30.40;64.20
19522;DHT22;9905;52.126;5.596;2023-06-14T13:30:21;30.60;63.20
19522;DHT22;9905;52.126;5.596;2023-06-14T13:32:49;30.40;63.30
19522;DHT22;9905;52.126;5.596;2023-06-14T13:35:17;30.60;64.00
19522;DHT22;9905;52.126;5.596;2023-06-14T13:37:44;30.40;62.80
19522;DHT22;9905;52.126;5.596;2023-06-14T13:40:11;30.40;63.40
19522;DHT22;9905;52.126;5.596;2023-06-14T13:42:38;30.50;63.10
19522;DHT22;9905;52.126;5.596;2023-06-14T13:45:06;31.00;64.10
19522;DHT22;9905;52.126;5.596;2023-06-14T13:47:33;31.10;64.00
19522;DHT22;9905;52.126;5.596;2023-06-14T13:50:02;31.10;63.60
19522;DHT22;9905;52.126;5.596;2023-06-14T13:52:28;31.10;62.40
19522;DHT22;9905;52.126;5.596;2023-06-14T13:54:55;31.10;61.80
19522;DHT22;9905;52.126;5.596;2023-06-14T13:57:22;31.30;62.10
19522;DHT22;9905;52.126;5.596;2023-06-14T13:59:49;31.40;62.30
19522;DHT22;9905;52.126;5.596;2023-06-14T14:02:16;31.30;61.00
19522;DHT22;9905;52.126;5.596;2023-06-14T14:04:44;31.10;60.50
19522;DHT22;9905;52.126;5.596;2023-06-14T14:07:18;31.10;61.10
19522;DHT22;9905;52.126;5.596;2023-06-14T14:09:46;31.20;62.60
19522;DHT22;9905;52.126;5.596;2023-06-14T14:12:13;31.40;60.60
19522;DHT22;9905;52.126;5.596;2023-06-14T14:14:40;31.20;60.30
19522;DHT22;9905;52.126;5.596;2023-06-14T14:17:06;31.20;61.30
19522;DHT22;9905;52.126;5.596;2023-06-14T14:19:33;31.40;61.30
19522;DHT22;9905;52.126;5.596;2023-06-14T14:22:01;31.40;61.30
19522;DHT22;9905;52.126;5.596;2023-06-14T14:24:29;31.50;60.90
19522;DHT22;9905;52.126;5.596;2023-06-14T14:26:56;31.60;59.90
19522;DHT22;9905;52.126;5.596;2023-06-14T14:29:25;32.00;60.30
19522;DHT22;9905;52.126;5.596;2023-06-14T14:31:54;32.20;59.60
19522;DHT22;9905;52.126;5.596;2023-06-14T14:34:21;32.10;59.40
19522;DHT22;9905;52.126;5.596;2023-06-14T14:36:48;31.80;58.90
19522;DHT22;9905;52.126;5.596;2023-06-14T14:39:14;31.80;59.60
19522;DHT22;9905;52.126;5.596;2023-06-14T14:41:42;31.70;58.90
19522;DHT22;9905;52.126;5.596;2023-06-14T14:44:09;31.50;59.10
19522;DHT22;9905;52.126;5.596;2023-06-14T14:46:36;31.60;59.30
19522;DHT22;9905;52.126;5.596;2023-06-14T14:49:03;31.70;59.30
19522;DHT22;9905;52.126;5.596;2023-06-14T14:51:30;31.90;59.10
19522;DHT22;9905;52.126;5.596;2023-06-14T14:53:56;32.10;59.50
19522;DHT22;9905;52.126;5.596;2023-06-14T14:56:23;32.10;60.10
19522;DHT22;9905;52.126;5.596;2023-06-14T14:58:52;31.80;59.20
19522;DHT22;9905;52.126;5.596;2023-06-14T15:01:19;31.50;59.50
19522;DHT22;9905;52.126;5.596;2023-06-14T15:03:46;31.40;60.20
19522;DHT22;9905;52.126;5.596;2023-06-14T15:06:19;31.40;60.00
19522;DHT22;9905;52.126;5.596;2023-06-14T15:08:46;31.50;59.80
19522;DHT22;9905;52.126;5.596;2023-06-14T15:11:14;31.50;59.60
19522;DHT22;9905;52.126;5.596;2023-06-14T15:13:46;31.60;59.70
19522;DHT22;9905;52.126;5.596;2023-06-14T15:16:14;31.90;60.70
19522;DHT22;9905;52.126;5.596;2023-06-14T15:18:41;32.00;59.70
19522;DHT22;9905;52.126;5.596;2023-06-14T15:21:07;32.10;60.60
19522;DHT22;9905;52.126;5.596;2023-06-14T15:23:34;32.30;60.30
19522;DHT22;9905;52.126;5.596;2023-06-14T15:26:01;32.30;59.10
19522;DHT22;9905;52.126;5.596;2023-06-14T15:28:28;32.40;59.40
19522;DHT22;9905;52.126;5.596;2023-06-14T15:30:54;32.30;59.30
19522;DHT22;9905;52.126;5.596;2023-06-14T15:33:23;32.20;59.30
19522;DHT22;9905;52.126;5.596;2023-06-14T15:35:51;32.00;59.80
19522;DHT22;9905;52.126;5.596;2023-06-14T15:38:19;31.90;59.60
19522;DHT22;9905;52.126;5.596;2023-06-14T15:40:47;32.00;59.90
19522;DHT22;9905;52.126;5.596;2023-06-14T15:43:17;32.10;59.90
19522;DHT22;9905;52.126;5.596;2023-06-14T15:45:44;32.00;59.10
19522;DHT22;9905;52.126;5.596;2023-06-14T15:48:10;31.90;59.20
19522;DHT22;9905;52.126;5.596;2023-06-14T15:50:38;32.00;59.20
19522;DHT22;9905;52.126;5.596;2023-06-14T15:53:05;32.10;59.60